Anchorage, AK

6:37 AM AKST on March 02, 2015 (GMT -0900)
Elmendorf Air Force Base | Change Station
CLOSE
Current Station
Airport
Location: Elmendorf AFB,
Elevation: 213 ft
Nearby Weather Stations

Elev 213 ft 61.25 °N, 149.81 °W | Updated 39 minutes ago

Partly Cloudy
Partly Cloudy
21 °F
Feels Like 16 °F
N
4
Wind Variable Wind from NNE

Today
High -- | Low -- °F
--% Chance of Precip.
Yesterday
High -- | Low -- °F
Precip. -- in
7:57 AM 6:27 PM
Waxing Gibbous, 92% visible
Pressure 30.30 in
Visibility 4.0 miles
Clouds Few 500 ft
Windchill 16 °F
Dew Point 21 °F
Humidity 99%
Rainfall 0.00 in
Snow Depth Not available.
UV 0 out of 12
Pollen Not available.
Air Quality Not available.
Flu Activity Not available.
METAR PAED 021458Z 03003KT 4SM BR FEW005 M06/M06 A3030 RMK AO2A VIS 1/2 RWY24 SLP259 T10621063 57023

More Conditions Fewer Conditions

Pressure 30.30 in
Visibility 4.0 miles
Clouds Few 500 ft
Windchill 16 °F
Dew Point 21 °F
Humidity 99%
Rainfall 0.00 in
Snow Depth Not available.
UV 0 out of 12
Pollen Not available.
Air Quality Not available.
Flu Activity Not available.
METAR PAED 021458Z 03003KT 4SM BR FEW005 M06/M06 A3030 RMK AO2A VIS 1/2 RWY24 SLP259 T10621063 57023

More Conditions Fewer Conditions

10-Day Weather Forecast

Almanac

Astronomy

Mar. 02, 2015 Rise Set
Actual Time
Civil Twilight
Nautical Twilight
Astronomical Twilight
Moon
Length of Visible Light
Length of Day
Tomorrow will be .
, % of the Moon is Illuminated

Today's Extremes

State Highs State Lows

Community

WunderPhotos

Upload Photos

1,801,821 photos uploaded!

WunderBlogs® & News

Nearby

Air Quality

  Air Quality AQ Index Pollutant
Not available.

Snow Depth

Station Depth Elevation

Earthquake Activity

City Distance Mag. Time & Date
Minimum magnitude displayed is 2.5.

Coastal Water Temperatures

Place Temperature

Nearby Weather Stations